sensor_id;sensor_type;location;lat;lon;timestamp;P1;durP1;ratioP1;P2;durP2;ratioP2
17595;SDS011;8916;47.086;15.920;2023-02-13T00:01:35;19.92;;;9.93;;
17595;SDS011;8916;47.086;15.920;2023-02-13T00:04:04;23.08;;;10.93;;
17595;SDS011;8916;47.086;15.920;2023-02-13T00:06:33;20.27;;;9.80;;
17595;SDS011;8916;47.086;15.920;2023-02-13T00:09:02;24.30;;;11.50;;
17595;SDS011;8916;47.086;15.920;2023-02-13T00:11:34;27.50;;;10.45;;
17595;SDS011;8916;47.086;15.920;2023-02-13T00:14:04;20.08;;;10.63;;
17595;SDS011;8916;47.086;15.920;2023-02-13T00:16:33;24.60;;;12.18;;
17595;SDS011;8916;47.086;15.920;2023-02-13T00:19:02;20.65;;;10.38;;
17595;SDS011;8916;47.086;15.920;2023-02-13T00:21:31;21.42;;;10.27;;
17595;SDS011;8916;47.086;15.920;2023-02-13T00:24:00;23.65;;;11.18;;
17595;SDS011;8916;47.086;15.920;2023-02-13T00:26:29;28.02;;;12.00;;
17595;SDS011;8916;47.086;15.920;2023-02-13T00:28:59;23.67;;;11.40;;
17595;SDS011;8916;47.086;15.920;2023-02-13T00:31:28;29.80;;;12.40;;
17595;SDS011;8916;47.086;15.920;2023-02-13T00:33:58;25.25;;;12.30;;
17595;SDS011;8916;47.086;15.920;2023-02-13T00:36:27;20.83;;;11.02;;
17595;SDS011;8916;47.086;15.920;2023-02-13T00:38:56;22.08;;;10.18;;
17595;SDS011;8916;47.086;15.920;2023-02-13T00:41:25;19.15;;;9.90;;
17595;SDS011;8916;47.086;15.920;2023-02-13T00:43:54;20.92;;;10.15;;
17595;SDS011;8916;47.086;15.920;2023-02-13T00:46:24;25.05;;;10.85;;
17595;SDS011;8916;47.086;15.920;2023-02-13T00:48:54;17.23;;;8.60;;
17595;SDS011;8916;47.086;15.920;2023-02-13T00:51:23;21.50;;;9.55;;
17595;SDS011;8916;47.086;15.920;2023-02-13T00:53:52;18.92;;;8.32;;
17595;SDS011;8916;47.086;15.920;2023-02-13T00:56:21;15.95;;;8.02;;
17595;SDS011;8916;47.086;15.920;2023-02-13T00:58:51;16.65;;;8.55;;
17595;SDS011;8916;47.086;15.920;2023-02-13T01:01:20;15.13;;;7.55;;
17595;SDS011;8916;47.086;15.920;2023-02-13T01:03:50;16.25;;;8.10;;
17595;SDS011;8916;47.086;15.920;2023-02-13T01:06:20;16.63;;;7.80;;
17595;SDS011;8916;47.086;15.920;2023-02-13T01:08:49;23.77;;;8.38;;
17595;SDS011;8916;47.086;15.920;2023-02-13T01:11:18;17.60;;;7.97;;
17595;SDS011;8916;47.086;15.920;2023-02-13T01:13:47;18.00;;;8.55;;
17595;SDS011;8916;47.086;15.920;2023-02-13T01:16:19;17.70;;;8.32;;
17595;SDS011;8916;47.086;15.920;2023-02-13T01:18:48;20.80;;;8.15;;
17595;SDS011;8916;47.086;15.920;2023-02-13T01:21:19;19.30;;;9.50;;
17595;SDS011;8916;47.086;15.920;2023-02-13T01:23:52;19.30;;;8.75;;
17595;SDS011;8916;47.086;15.920;2023-02-13T01:26:22;16.55;;;9.15;;
17595;SDS011;8916;47.086;15.920;2023-02-13T01:28:52;22.23;;;10.00;;
17595;SDS011;8916;47.086;15.920;2023-02-13T01:31:22;22.83;;;10.63;;
17595;SDS011;8916;47.086;15.920;2023-02-13T01:33:54;21.95;;;9.18;;
17595;SDS011;8916;47.086;15.920;2023-02-13T01:36:26;22.23;;;10.35;;
17595;SDS011;8916;47.086;15.920;2023-02-13T01:38:56;22.80;;;9.93;;
17595;SDS011;8916;47.086;15.920;2023-02-13T01:41:26;17.38;;;8.60;;
17595;SDS011;8916;47.086;15.920;2023-02-13T01:43:56;18.45;;;8.85;;
17595;SDS011;8916;47.086;15.920;2023-02-13T01:46:28;16.10;;;8.25;;
17595;SDS011;8916;47.086;15.920;2023-02-13T01:49:04;14.70;;;7.68;;
17595;SDS011;8916;47.086;15.920;2023-02-13T01:51:41;16.20;;;8.00;;
17595;SDS011;8916;47.086;15.920;2023-02-13T01:54:11;13.43;;;7.22;;
17595;SDS011;8916;47.086;15.920;2023-02-13T01:56:47;18.42;;;8.02;;
17595;SDS011;8916;47.086;15.920;2023-02-13T01:59:20;16.25;;;8.25;;
17595;SDS011;8916;47.086;15.920;2023-02-13T02:01:56;13.38;;;7.05;;
17595;SDS011;8916;47.086;15.920;2023-02-13T02:04:27;13.30;;;7.30;;
17595;SDS011;8916;47.086;15.920;2023-02-13T02:07:05;16.17;;;7.47;;
17595;SDS011;8916;47.086;15.920;2023-02-13T02:09:40;14.18;;;7.90;;
17595;SDS011;8916;47.086;15.920;2023-02-13T02:12:16;16.73;;;8.32;;
17595;SDS011;8916;47.086;15.920;2023-02-13T02:14:51;16.95;;;8.98;;
17595;SDS011;8916;47.086;15.920;2023-02-13T02:17:23;17.70;;;8.55;;
17595;SDS011;8916;47.086;15.920;2023-02-13T02:19:57;18.55;;;8.75;;
17595;SDS011;8916;47.086;15.920;2023-02-13T02:22:49;20.00;;;9.52;;
17595;SDS011;8916;47.086;15.920;2023-02-13T02:26:16;20.63;;;9.25;;
17595;SDS011;8916;47.086;15.920;2023-02-13T02:32:39;21.10;;;8.55;;
17595;SDS011;8916;47.086;15.920;2023-02-13T02:35:33;18.75;;;9.23;;
17595;SDS011;8916;47.086;15.920;2023-02-13T02:38:13;20.15;;;9.43;;
17595;SDS011;8916;47.086;15.920;2023-02-13T02:40:58;16.75;;;8.65;;
17595;SDS011;8916;47.086;15.920;2023-02-13T02:43:40;16.92;;;8.63;;
17595;SDS011;8916;47.086;15.920;2023-02-13T02:46:24;16.33;;;8.07;;
17595;SDS011;8916;47.086;15.920;2023-02-13T02:49:03;16.55;;;8.55;;
17595;SDS011;8916;47.086;15.920;2023-02-13T02:51:54;15.57;;;8.30;;
17595;SDS011;8916;47.086;15.920;2023-02-13T02:54:32;15.95;;;7.85;;
17595;SDS011;8916;47.086;15.920;2023-02-13T02:57:47;21.60;;;8.85;;
17595;SDS011;8916;47.086;15.920;2023-02-13T03:00:43;16.77;;;7.47;;
17595;SDS011;8916;47.086;15.920;2023-02-13T03:03:31;12.15;;;7.60;;
17595;SDS011;8916;47.086;15.920;2023-02-13T03:06:22;14.48;;;7.65;;
17595;SDS011;8916;47.086;15.920;2023-02-13T03:08:57;11.45;;;5.63;;
17595;SDS011;8916;47.086;15.920;2023-02-13T03:11:48;16.02;;;8.15;;
17595;SDS011;8916;47.086;15.920;2023-02-13T03:14:37;19.20;;;8.65;;
17595;SDS011;8916;47.086;15.920;2023-02-13T03:17:07;15.02;;;7.85;;
17595;SDS011;8916;47.086;15.920;2023-02-13T03:19:58;14.15;;;7.85;;
17595;SDS011;8916;47.086;15.920;2023-02-13T03:23:14;18.83;;;7.88;;
17595;SDS011;8916;47.086;15.920;2023-02-13T03:25:54;13.98;;;7.88;;
17595;SDS011;8916;47.086;15.920;2023-02-13T03:28:44;14.30;;;7.85;;
17595;SDS011;8916;47.086;15.920;2023-02-13T03:31:37;16.00;;;8.40;;
17595;SDS011;8916;47.086;15.920;2023-02-13T03:34:18;17.40;;;7.63;;
17595;SDS011;8916;47.086;15.920;2023-02-13T03:36:52;15.80;;;8.55;;
17595;SDS011;8916;47.086;15.920;2023-02-13T03:39:48;18.02;;;8.82;;
17595;SDS011;8916;47.086;15.920;2023-02-13T03:42:31;16.05;;;7.57;;
17595;SDS011;8916;47.086;15.920;2023-02-13T03:45:06;17.10;;;7.40;;
17595;SDS011;8916;47.086;15.920;2023-02-13T03:48:00;16.75;;;7.22;;
17595;SDS011;8916;47.086;15.920;2023-02-13T03:50:53;17.10;;;7.70;;
17595;SDS011;8916;47.086;15.920;2023-02-13T03:53:23;13.05;;;7.15;;
17595;SDS011;8916;47.086;15.920;2023-02-13T03:55:57;13.05;;;6.78;;
17595;SDS011;8916;47.086;15.920;2023-02-13T03:58:47;14.73;;;7.45;;
17595;SDS011;8916;47.086;15.920;2023-02-13T04:01:38;13.73;;;7.47;;
17595;SDS011;8916;47.086;15.920;2023-02-13T04:04:10;15.73;;;7.63;;
17595;SDS011;8916;47.086;15.920;2023-02-13T04:06:45;13.27;;;7.00;;
17595;SDS011;8916;47.086;15.920;2023-02-13T04:09:19;14.55;;;7.82;;
17595;SDS011;8916;47.086;15.920;2023-02-13T04:11:52;16.63;;;8.10;;
17595;SDS011;8916;47.086;15.920;2023-02-13T04:14:27;20.08;;;8.40;;
17595;SDS011;8916;47.086;15.920;2023-02-13T04:17:04;15.38;;;8.40;;
17595;SDS011;8916;47.086;15.920;2023-02-13T04:19:36;20.48;;;9.32;;
17595;SDS011;8916;47.086;15.920;2023-02-13T04:22:05;18.70;;;9.77;;
17595;SDS011;8916;47.086;15.920;2023-02-13T04:24:34;14.80;;;8.00;;
17595;SDS011;8916;47.086;15.920;2023-02-13T04:27:04;20.60;;;7.85;;
17595;SDS011;8916;47.086;15.920;2023-02-13T04:29:33;20.33;;;8.15;;
17595;SDS011;8916;47.086;15.920;2023-02-13T04:32:02;16.15;;;7.97;;
17595;SDS011;8916;47.086;15.920;2023-02-13T04:34:32;20.45;;;8.85;;
17595;SDS011;8916;47.086;15.920;2023-02-13T04:37:01;13.32;;;7.63;;
17595;SDS011;8916;47.086;15.920;2023-02-13T04:39:30;13.95;;;7.28;;
17595;SDS011;8916;47.086;15.920;2023-02-13T04:41:59;16.75;;;7.60;;
17595;SDS011;8916;47.086;15.920;2023-02-13T04:44:29;14.75;;;7.22;;
17595;SDS011;8916;47.086;15.920;2023-02-13T04:46:58;16.00;;;8.73;;
17595;SDS011;8916;47.086;15.920;2023-02-13T04:49:27;16.38;;;8.88;;
17595;SDS011;8916;47.086;15.920;2023-02-13T04:51:56;14.55;;;7.80;;
17595;SDS011;8916;47.086;15.920;2023-02-13T04:54:25;15.32;;;7.93;;
17595;SDS011;8916;47.086;15.920;2023-02-13T04:56:54;16.60;;;8.25;;
17595;SDS011;8916;47.086;15.920;2023-02-13T04:59:23;17.63;;;9.18;;
17595;SDS011;8916;47.086;15.920;2023-02-13T05:01:53;14.70;;;7.68;;
17595;SDS011;8916;47.086;15.920;2023-02-13T05:04:22;14.60;;;7.85;;
17595;SDS011;8916;47.086;15.920;2023-02-13T05:06:51;12.82;;;7.35;;
17595;SDS011;8916;47.086;15.920;2023-02-13T05:09:20;13.25;;;6.47;;
17595;SDS011;8916;47.086;15.920;2023-02-13T05:11:50;15.07;;;7.18;;
17595;SDS011;8916;47.086;15.920;2023-02-13T05:14:20;15.70;;;7.00;;
17595;SDS011;8916;47.086;15.920;2023-02-13T05:16:49;13.88;;;6.88;;
17595;SDS011;8916;47.086;15.920;2023-02-13T05:19:19;16.98;;;7.00;;
17595;SDS011;8916;47.086;15.920;2023-02-13T05:21:48;13.32;;;7.30;;
17595;SDS011;8916;47.086;15.920;2023-02-13T05:24:35;13.00;;;7.50;;
17595;SDS011;8916;47.086;15.920;2023-02-13T05:27:04;13.40;;;6.75;;
17595;SDS011;8916;47.086;15.920;2023-02-13T05:29:33;13.23;;;6.85;;
17595;SDS011;8916;47.086;15.920;2023-02-13T05:32:02;18.95;;;7.70;;
17595;SDS011;8916;47.086;15.920;2023-02-13T05:34:33;13.27;;;7.50;;
17595;SDS011;8916;47.086;15.920;2023-02-13T05:37:02;16.70;;;7.70;;
17595;SDS011;8916;47.086;15.920;2023-02-13T05:39:31;24.95;;;9.35;;
17595;SDS011;8916;47.086;15.920;2023-02-13T05:42:00;22.27;;;8.73;;
17595;SDS011;8916;47.086;15.920;2023-02-13T05:44:30;22.08;;;7.53;;
17595;SDS011;8916;47.086;15.920;2023-02-13T05:47:00;16.45;;;7.35;;
17595;SDS011;8916;47.086;15.920;2023-02-13T05:49:33;14.00;;;6.93;;
17595;SDS011;8916;47.086;15.920;2023-02-13T05:52:02;14.52;;;7.13;;
17595;SDS011;8916;47.086;15.920;2023-02-13T05:54:31;14.07;;;7.15;;
17595;SDS011;8916;47.086;15.920;2023-02-13T05:57:00;16.00;;;6.97;;
17595;SDS011;8916;47.086;15.920;2023-02-13T05:59:29;15.23;;;7.53;;
17595;SDS011;8916;47.086;15.920;2023-02-13T06:01:58;13.30;;;6.97;;
17595;SDS011;8916;47.086;15.920;2023-02-13T06:04:27;14.98;;;7.75;;
17595;SDS011;8916;47.086;15.920;2023-02-13T06:06:58;14.38;;;7.60;;
17595;SDS011;8916;47.086;15.920;2023-02-13T06:09:27;14.60;;;7.78;;
17595;SDS011;8916;47.086;15.920;2023-02-13T06:11:56;19.48;;;8.73;;
17595;SDS011;8916;47.086;15.920;2023-02-13T06:14:25;22.88;;;8.68;;
17595;SDS011;8916;47.086;15.920;2023-02-13T06:16:54;18.13;;;8.48;;
17595;SDS011;8916;47.086;15.920;2023-02-13T06:19:23;19.75;;;8.55;;
17595;SDS011;8916;47.086;15.920;2023-02-13T06:21:52;14.32;;;7.55;;
17595;SDS011;8916;47.086;15.920;2023-02-13T06:24:23;18.55;;;7.35;;
17595;SDS011;8916;47.086;15.920;2023-02-13T06:26:52;14.50;;;6.78;;
17595;SDS011;8916;47.086;15.920;2023-02-13T06:29:21;15.90;;;7.22;;
17595;SDS011;8916;47.086;15.920;2023-02-13T06:31:50;12.15;;;7.15;;
17595;SDS011;8916;47.086;15.920;2023-02-13T06:34:19;14.18;;;6.82;;
17595;SDS011;8916;47.086;15.920;2023-02-13T06:36:48;16.40;;;7.68;;
17595;SDS011;8916;47.086;15.920;2023-02-13T06:39:19;19.75;;;8.18;;
17595;SDS011;8916;47.086;15.920;2023-02-13T06:41:49;16.05;;;8.20;;
17595;SDS011;8916;47.086;15.920;2023-02-13T06:44:18;19.70;;;7.75;;
17595;SDS011;8916;47.086;15.920;2023-02-13T06:46:47;20.30;;;8.55;;
17595;SDS011;8916;47.086;15.920;2023-02-13T06:49:16;17.35;;;8.05;;
17595;SDS011;8916;47.086;15.920;2023-02-13T06:51:45;16.30;;;7.47;;
17595;SDS011;8916;47.086;15.920;2023-02-13T06:54:14;14.75;;;8.13;;
17595;SDS011;8916;47.086;15.920;2023-02-13T06:56:43;16.00;;;7.95;;
17595;SDS011;8916;47.086;15.920;2023-02-13T06:59:14;19.83;;;8.65;;
17595;SDS011;8916;47.086;15.920;2023-02-13T07:01:42;17.10;;;8.07;;
17595;SDS011;8916;47.086;15.920;2023-02-13T07:04:11;16.00;;;8.20;;
17595;SDS011;8916;47.086;15.920;2023-02-13T07:06:41;19.50;;;9.40;;
17595;SDS011;8916;47.086;15.920;2023-02-13T07:09:10;19.85;;;9.68;;
17595;SDS011;8916;47.086;15.920;2023-02-13T07:11:42;23.60;;;10.65;;
17595;SDS011;8916;47.086;15.920;2023-02-13T07:14:11;23.80;;;10.30;;
17595;SDS011;8916;47.086;15.920;2023-02-13T07:16:42;23.33;;;11.05;;
17595;SDS011;8916;47.086;15.920;2023-02-13T07:19:11;21.42;;;9.30;;
17595;SDS011;8916;47.086;15.920;2023-02-13T07:21:40;23.58;;;10.18;;
17595;SDS011;8916;47.086;15.920;2023-02-13T07:24:09;23.48;;;9.57;;
17595;SDS011;8916;47.086;15.920;2023-02-13T07:26:39;21.15;;;10.05;;
17595;SDS011;8916;47.086;15.920;2023-02-13T07:29:08;19.67;;;8.93;;
17595;SDS011;8916;47.086;15.920;2023-02-13T07:31:40;20.05;;;10.20;;
17595;SDS011;8916;47.086;15.920;2023-02-13T07:34:09;22.15;;;9.60;;
17595;SDS011;8916;47.086;15.920;2023-02-13T07:36:38;22.25;;;9.20;;
17595;SDS011;8916;47.086;15.920;2023-02-13T07:39:07;22.05;;;9.43;;
17595;SDS011;8916;47.086;15.920;2023-02-13T07:41:36;15.90;;;8.32;;
17595;SDS011;8916;47.086;15.920;2023-02-13T07:44:06;14.65;;;8.40;;
17595;SDS011;8916;47.086;15.920;2023-02-13T07:46:35;20.08;;;8.75;;
17595;SDS011;8916;47.086;15.920;2023-02-13T07:49:06;16.83;;;7.47;;
17595;SDS011;8916;47.086;15.920;2023-02-13T07:51:35;17.40;;;9.30;;
17595;SDS011;8916;47.086;15.920;2023-02-13T07:54:04;17.45;;;9.25;;
17595;SDS011;8916;47.086;15.920;2023-02-13T07:56:33;16.58;;;8.25;;
17595;SDS011;8916;47.086;15.920;2023-02-13T07:59:02;21.77;;;9.50;;
17595;SDS011;8916;47.086;15.920;2023-02-13T08:01:34;16.35;;;8.60;;
17595;SDS011;8916;47.086;15.920;2023-02-13T08:04:03;17.33;;;8.57;;
17595;SDS011;8916;47.086;15.920;2023-02-13T08:06:33;18.55;;;7.70;;
17595;SDS011;8916;47.086;15.920;2023-02-13T08:09:03;15.20;;;7.75;;
17595;SDS011;8916;47.086;15.920;2023-02-13T08:11:49;13.05;;;7.22;;
17595;SDS011;8916;47.086;15.920;2023-02-13T08:14:23;17.20;;;8.07;;
17595;SDS011;8916;47.086;15.920;2023-02-13T08:16:54;18.33;;;7.60;;
17595;SDS011;8916;47.086;15.920;2023-02-13T08:19:23;16.30;;;7.40;;
17595;SDS011;8916;47.086;15.920;2023-02-13T08:21:54;12.63;;;6.80;;
17595;SDS011;8916;47.086;15.920;2023-02-13T08:24:23;16.88;;;7.25;;
17595;SDS011;8916;47.086;15.920;2023-02-13T08:26:52;12.88;;;7.20;;
17595;SDS011;8916;47.086;15.920;2023-02-13T08:29:22;15.68;;;7.03;;
17595;SDS011;8916;47.086;15.920;2023-02-13T08:31:52;14.15;;;6.22;;
17595;SDS011;8916;47.086;15.920;2023-02-13T08:34:21;14.73;;;6.18;;
17595;SDS011;8916;47.086;15.920;2023-02-13T08:36:50;11.98;;;6.40;;
17595;SDS011;8916;47.086;15.920;2023-02-13T08:39:20;12.07;;;6.43;;
17595;SDS011;8916;47.086;15.920;2023-02-13T08:41:49;11.35;;;5.38;;
17595;SDS011;8916;47.086;15.920;2023-02-13T08:44:18;11.77;;;5.90;;
17595;SDS011;8916;47.086;15.920;2023-02-13T08:46:48;10.98;;;5.45;;
17595;SDS011;8916;47.086;15.920;2023-02-13T08:49:17;9.70;;;4.97;;
17595;SDS011;8916;47.086;15.920;2023-02-13T08:51:46;11.07;;;5.53;;
17595;SDS011;8916;47.086;15.920;2023-02-13T08:54:15;13.05;;;5.60;;
17595;SDS011;8916;47.086;15.920;2023-02-13T08:56:45;9.82;;;5.70;;
17595;SDS011;8916;47.086;15.920;2023-02-13T08:59:15;11.45;;;5.40;;
17595;SDS011;8916;47.086;15.920;2023-02-13T09:01:44;14.50;;;5.20;;
17595;SDS011;8916;47.086;15.920;2023-02-13T09:04:13;14.05;;;5.18;;
17595;SDS011;8916;47.086;15.920;2023-02-13T09:06:44;18.85;;;5.47;;
17595;SDS011;8916;47.086;15.920;2023-02-13T09:09:13;16.58;;;5.72;;
17595;SDS011;8916;47.086;15.920;2023-02-13T09:11:43;17.85;;;5.80;;
17595;SDS011;8916;47.086;15.920;2023-02-13T09:14:13;9.93;;;5.82;;
17595;SDS011;8916;47.086;15.920;2023-02-13T09:16:42;15.32;;;6.05;;
17595;SDS011;8916;47.086;15.920;2023-02-13T09:19:12;11.30;;;5.45;;
17595;SDS011;8916;47.086;15.920;2023-02-13T09:21:41;10.90;;;4.90;;
17595;SDS011;8916;47.086;15.920;2023-02-13T09:24:10;11.73;;;5.22;;
17595;SDS011;8916;47.086;15.920;2023-02-13T09:26:39;10.13;;;4.40;;
17595;SDS011;8916;47.086;15.920;2023-02-13T09:29:08;18.33;;;5.20;;
17595;SDS011;8916;47.086;15.920;2023-02-13T09:31:38;13.25;;;5.25;;
17595;SDS011;8916;47.086;15.920;2023-02-13T09:34:07;9.70;;;4.38;;
17595;SDS011;8916;47.086;15.920;2023-02-13T09:36:37;13.18;;;4.63;;
17595;SDS011;8916;47.086;15.920;2023-02-13T09:39:06;17.77;;;5.00;;
17595;SDS011;8916;47.086;15.920;2023-02-13T09:41:35;12.65;;;4.97;;
17595;SDS011;8916;47.086;15.920;2023-02-13T09:44:10;14.98;;;4.30;;
17595;SDS011;8916;47.086;15.920;2023-02-13T09:46:59;9.25;;;4.63;;
17595;SDS011;8916;47.086;15.920;2023-02-13T09:49:33;15.55;;;4.63;;
17595;SDS011;8916;47.086;15.920;2023-02-13T09:52:07;11.00;;;4.68;;
17595;SDS011;8916;47.086;15.920;2023-02-13T09:54:37;10.90;;;4.47;;
17595;SDS011;8916;47.086;15.920;2023-02-13T09:57:07;15.13;;;4.88;;
17595;SDS011;8916;47.086;15.920;2023-02-13T09:59:49;9.77;;;4.70;;
17595;SDS011;8916;47.086;15.920;2023-02-13T10:02:39;12.77;;;4.90;;
17595;SDS011;8916;47.086;15.920;2023-02-13T10:05:23;19.13;;;4.60;;
17595;SDS011;8916;47.086;15.920;2023-02-13T10:08:19;12.38;;;4.93;;
17595;SDS011;8916;47.086;15.920;2023-02-13T10:10:58;12.40;;;4.15;;
17595;SDS011;8916;47.086;15.920;2023-02-13T10:13:42;10.00;;;3.90;;
17595;SDS011;8916;47.086;15.920;2023-02-13T10:16:24;6.00;;;3.88;;
17595;SDS011;8916;47.086;15.920;2023-02-13T10:18:59;8.82;;;4.90;;
17595;SDS011;8916;47.086;15.920;2023-02-13T10:21:37;10.05;;;3.80;;
17595;SDS011;8916;47.086;15.920;2023-02-13T10:24:16;7.60;;;3.80;;
17595;SDS011;8916;47.086;15.920;2023-02-13T10:26:59;8.10;;;4.55;;
17595;SDS011;8916;47.086;15.920;2023-02-13T10:29:37;8.20;;;4.40;;
17595;SDS011;8916;47.086;15.920;2023-02-13T10:32:31;9.38;;;4.35;;
17595;SDS011;8916;47.086;15.920;2023-02-13T10:38:00;11.07;;;4.35;;
17595;SDS011;8916;47.086;15.920;2023-02-13T10:40:43;7.93;;;4.13;;
17595;SDS011;8916;47.086;15.920;2023-02-13T10:43:27;16.50;;;5.22;;
17595;SDS011;8916;47.086;15.920;2023-02-13T10:46:05;12.55;;;4.85;;
17595;SDS011;8916;47.086;15.920;2023-02-13T10:48:51;11.30;;;5.13;;
17595;SDS011;8916;47.086;15.920;2023-02-13T10:51:38;10.55;;;5.15;;
17595;SDS011;8916;47.086;15.920;2023-02-13T10:54:19;11.90;;;4.55;;
17595;SDS011;8916;47.086;15.920;2023-02-13T10:57:03;8.13;;;4.35;;
17595;SDS011;8916;47.086;15.920;2023-02-13T10:59:45;10.57;;;5.05;;
17595;SDS011;8916;47.086;15.920;2023-02-13T11:02:27;9.48;;;4.68;;
17595;SDS011;8916;47.086;15.920;2023-02-13T11:04:59;10.05;;;4.65;;
17595;SDS011;8916;47.086;15.920;2023-02-13T11:07:36;10.80;;;4.78;;
17595;SDS011;8916;47.086;15.920;2023-02-13T11:10:12;10.45;;;5.20;;
17595;SDS011;8916;47.086;15.920;2023-02-13T11:12:45;13.75;;;5.05;;
17595;SDS011;8916;47.086;15.920;2023-02-13T11:15:19;7.28;;;4.50;;
17595;SDS011;8916;47.086;15.920;2023-02-13T11:17:53;11.13;;;5.18;;
17595;SDS011;8916;47.086;15.920;2023-02-13T11:20:26;8.15;;;4.53;;
17595;SDS011;8916;47.086;15.920;2023-02-13T11:23:23;9.25;;;5.30;;
17595;SDS011;8916;47.086;15.920;2023-02-13T11:26:03;12.68;;;5.40;;
17595;SDS011;8916;47.086;15.920;2023-02-13T11:28:36;12.75;;;5.07;;
17595;SDS011;8916;47.086;15.920;2023-02-13T11:31:18;10.13;;;5.13;;
17595;SDS011;8916;47.086;15.920;2023-02-13T11:33:52;7.97;;;4.63;;
17595;SDS011;8916;47.086;15.920;2023-02-13T11:36:26;6.97;;;4.82;;
17595;SDS011;8916;47.086;15.920;2023-02-13T11:39:02;8.82;;;4.85;;
17595;SDS011;8916;47.086;15.920;2023-02-13T11:41:36;8.27;;;4.65;;
17595;SDS011;8916;47.086;15.920;2023-02-13T11:44:17;13.15;;;5.28;;
17595;SDS011;8916;47.086;15.920;2023-02-13T11:46:52;9.23;;;5.10;;
17595;SDS011;8916;47.086;15.920;2023-02-13T11:53:49;8.32;;;4.93;;
17595;SDS011;8916;47.086;15.920;2023-02-13T11:56:19;9.18;;;5.00;;
17595;SDS011;8916;47.086;15.920;2023-02-13T11:58:48;8.88;;;4.93;;
17595;SDS011;8916;47.086;15.920;2023-02-13T12:01:31;11.23;;;5.13;;
17595;SDS011;8916;47.086;15.920;2023-02-13T12:04:02;13.13;;;5.20;;
17595;SDS011;8916;47.086;15.920;2023-02-13T12:06:35;11.70;;;5.85;;
17595;SDS011;8916;47.086;15.920;2023-02-13T12:09:11;10.63;;;5.63;;
17595;SDS011;8916;47.086;15.920;2023-02-13T12:11:44;12.10;;;5.25;;
17595;SDS011;8916;47.086;15.920;2023-02-13T12:14:17;11.00;;;5.45;;
17595;SDS011;8916;47.086;15.920;2023-02-13T12:16:50;11.27;;;5.22;;
17595;SDS011;8916;47.086;15.920;2023-02-13T12:19:24;9.02;;;5.40;;
17595;SDS011;8916;47.086;15.920;2023-02-13T12:22:05;9.57;;;5.70;;
17595;SDS011;8916;47.086;15.920;2023-02-13T12:24:52;9.02;;;5.53;;
17595;SDS011;8916;47.086;15.920;2023-02-13T12:27:57;10.80;;;5.18;;
17595;SDS011;8916;47.086;15.920;2023-02-13T12:30:47;8.32;;;5.10;;
17595;SDS011;8916;47.086;15.920;2023-02-13T12:33:56;11.00;;;6.13;;
17595;SDS011;8916;47.086;15.920;2023-02-13T12:37:14;8.73;;;5.10;;
17595;SDS011;8916;47.086;15.920;2023-02-13T12:39:54;11.20;;;5.45;;
17595;SDS011;8916;47.086;15.920;2023-02-13T12:42:43;10.52;;;5.63;;
17595;SDS011;8916;47.086;15.920;2023-02-13T12:45:27;12.03;;;5.53;;
17595;SDS011;8916;47.086;15.920;2023-02-13T12:48:16;9.20;;;5.45;;
17595;SDS011;8916;47.086;15.920;2023-02-13T12:51:01;8.50;;;5.35;;
17595;SDS011;8916;47.086;15.920;2023-02-13T12:53:51;7.47;;;4.78;;
17595;SDS011;8916;47.086;15.920;2023-02-13T12:56:46;13.57;;;5.85;;
17595;SDS011;8916;47.086;15.920;2023-02-13T12:59:27;13.48;;;6.18;;
17595;SDS011;8916;47.086;15.920;2023-02-13T13:02:26;10.43;;;5.72;;
17595;SDS011;8916;47.086;15.920;2023-02-13T13:05:42;8.88;;;4.53;;
17595;SDS011;8916;47.086;15.920;2023-02-13T13:08:49;11.20;;;5.30;;
17595;SDS011;8916;47.086;15.920;2023-02-13T13:11:46;11.00;;;5.22;;
17595;SDS011;8916;47.086;15.920;2023-02-13T13:14:35;10.73;;;5.57;;
17595;SDS011;8916;47.086;15.920;2023-02-13T13:17:12;10.60;;;5.57;;
17595;SDS011;8916;47.086;15.920;2023-02-13T13:19:55;10.75;;;5.75;;
17595;SDS011;8916;47.086;15.920;2023-02-13T13:22:49;10.32;;;5.47;;
17595;SDS011;8916;47.086;15.920;2023-02-13T13:25:24;10.15;;;5.15;;
17595;SDS011;8916;47.086;15.920;2023-02-13T13:28:01;16.50;;;6.22;;
17595;SDS011;8916;47.086;15.920;2023-02-13T13:30:39;10.20;;;5.45;;
17595;SDS011;8916;47.086;15.920;2023-02-13T13:33:12;9.60;;;5.28;;
17595;SDS011;8916;47.086;15.920;2023-02-13T13:35:52;12.45;;;5.68;;
17595;SDS011;8916;47.086;15.920;2023-02-13T13:38:33;7.53;;;5.03;;
17595;SDS011;8916;47.086;15.920;2023-02-13T13:41:19;9.52;;;5.20;;
17595;SDS011;8916;47.086;15.920;2023-02-13T13:44:01;9.30;;;5.32;;
17595;SDS011;8916;47.086;15.920;2023-02-13T13:46:46;9.65;;;5.03;;
17595;SDS011;8916;47.086;15.920;2023-02-13T13:49:34;9.15;;;4.85;;
17595;SDS011;8916;47.086;15.920;2023-02-13T13:52:19;9.90;;;5.15;;
17595;SDS011;8916;47.086;15.920;2023-02-13T13:54:53;8.70;;;4.93;;
17595;SDS011;8916;47.086;15.920;2023-02-13T13:57:23;9.13;;;5.18;;
17595;SDS011;8916;47.086;15.920;2023-02-13T14:00:00;9.20;;;5.18;;
17595;SDS011;8916;47.086;15.920;2023-02-13T14:02:51;11.57;;;5.65;;
17595;SDS011;8916;47.086;15.920;2023-02-13T14:05:59;9.20;;;5.20;;
17595;SDS011;8916;47.086;15.920;2023-02-13T14:11:31;8.52;;;5.22;;
17595;SDS011;8916;47.086;15.920;2023-02-13T14:17:12;7.70;;;4.88;;
17595;SDS011;8916;47.086;15.920;2023-02-13T14:19:45;9.15;;;4.95;;
17595;SDS011;8916;47.086;15.920;2023-02-13T14:22:26;12.15;;;5.20;;
17595;SDS011;8916;47.086;15.920;2023-02-13T14:25:06;11.80;;;4.90;;
17595;SDS011;8916;47.086;15.920;2023-02-13T14:27:54;9.77;;;5.00;;
17595;SDS011;8916;47.086;15.920;2023-02-13T14:30:26;20.80;;;9.25;;
17595;SDS011;8916;47.086;15.920;2023-02-13T14:32:59;9.18;;;4.95;;
17595;SDS011;8916;47.086;15.920;2023-02-13T14:35:32;10.55;;;5.15;;
17595;SDS011;8916;47.086;15.920;2023-02-13T14:38:05;7.85;;;5.25;;
17595;SDS011;8916;47.086;15.920;2023-02-13T14:40:52;8.82;;;5.25;;
17595;SDS011;8916;47.086;15.920;2023-02-13T14:46:23;6.43;;;4.43;;
17595;SDS011;8916;47.086;15.920;2023-02-13T14:49:02;7.25;;;4.53;;
17595;SDS011;8916;47.086;15.920;2023-02-13T14:51:40;7.30;;;4.55;;
17595;SDS011;8916;47.086;15.920;2023-02-13T14:54:17;6.88;;;4.57;;
17595;SDS011;8916;47.086;15.920;2023-02-13T14:56:59;6.65;;;4.70;;
17595;SDS011;8916;47.086;15.920;2023-02-13T14:59:37;8.50;;;4.85;;
17595;SDS011;8916;47.086;15.920;2023-02-13T15:02:15;9.23;;;5.13;;
17595;SDS011;8916;47.086;15.920;2023-02-13T15:04:52;7.75;;;4.72;;
17595;SDS011;8916;47.086;15.920;2023-02-13T15:07:26;9.50;;;5.05;;
17595;SDS011;8916;47.086;15.920;2023-02-13T15:10:04;8.05;;;4.18;;
17595;SDS011;8916;47.086;15.920;2023-02-13T15:12:56;12.95;;;4.88;;
17595;SDS011;8916;47.086;15.920;2023-02-13T15:15:27;7.73;;;4.30;;
17595;SDS011;8916;47.086;15.920;2023-02-13T15:18:01;7.22;;;4.57;;
17595;SDS011;8916;47.086;15.920;2023-02-13T15:20:36;8.90;;;4.80;;
17595;SDS011;8916;47.086;15.920;2023-02-13T15:23:14;7.45;;;4.93;;
17595;SDS011;8916;47.086;15.920;2023-02-13T15:25:54;9.45;;;5.35;;
17595;SDS011;8916;47.086;15.920;2023-02-13T15:28:27;8.85;;;5.07;;
17595;SDS011;8916;47.086;15.920;2023-02-13T15:30:57;8.77;;;5.55;;
17595;SDS011;8916;47.086;15.920;2023-02-13T15:33:33;10.55;;;5.45;;
17595;SDS011;8916;47.086;15.920;2023-02-13T15:36:15;8.70;;;5.30;;
17595;SDS011;8916;47.086;15.920;2023-02-13T15:38:45;8.15;;;5.00;;
17595;SDS011;8916;47.086;15.920;2023-02-13T15:41:16;15.35;;;5.60;;
17595;SDS011;8916;47.086;15.920;2023-02-13T15:43:52;10.60;;;5.38;;
17595;SDS011;8916;47.086;15.920;2023-02-13T15:46:26;10.50;;;5.30;;